Terminal Aerodrome Forecast
Issued by NWS

Current Version | Previous Version | Graphics & Text | Print | Product List | Glossary On
Versions: 1 2 3 4 5 6 7 8 9 10 11 12 13 14 15 16 17 18 19 20 21
865
FTUS41 KPBZ 190924 AAA
TAFHLG
TAF AMD
KHLG 190924Z 1909/2006 27015G25KT P6SM -SHRA OVC015
     FM191200 29020G30KT P6SM OVC020
     FM191900 28015G25KT P6SM -SHSN OVC020
     FM200000 28012G22KT P6SM BKN025
     FM200400 27010G20KT P6SM BKN035=

USA.gov is the U.S. government's official web portal to all federal, state and local government web resources and services.